createdAt,value
2019-04-16T00:02:04.313Z,101172.91
2019-04-16T00:04:33.633Z,101174.33
2019-04-16T00:07:07.334Z,101164.58
2019-04-16T00:09:45.490Z,101165.17
2019-04-16T00:12:34.975Z,101161.41
2019-04-16T00:15:05.824Z,101158.88
2019-04-16T00:17:35.429Z,101157.97
2019-04-16T00:20:07.255Z,101149.05
2019-04-16T00:22:41.179Z,101146.99
2019-04-16T00:25:10.923Z,101143.66
2019-04-16T00:27:41.825Z,101139.11
2019-04-16T00:30:13.747Z,101139.26
2019-04-16T00:32:43.341Z,101144.07
2019-04-16T00:35:15.427Z,101143.28
2019-04-16T00:37:44.193Z,101141.63
2019-04-16T00:40:14.106Z,101144.22
2019-04-16T00:42:43.687Z,101135.63
2019-04-16T00:45:13.391Z,101140.52
2019-04-16T00:47:42.940Z,101130.69
2019-04-16T00:50:12.576Z,101137.06
2019-04-16T00:52:42.175Z,101132.43
2019-04-16T00:55:14.617Z,101126.80
2019-04-16T00:57:43.080Z,101133.36
2019-04-16T01:00:12.983Z,101130.47
2019-04-16T01:02:42.643Z,101124.46
2019-04-16T01:05:12.558Z,101125.78
2019-04-16T01:07:42.125Z,101128.81
2019-04-16T01:10:11.688Z,101118.91
2019-04-16T01:12:41.325Z,101119.80
2019-04-16T01:15:10.961Z,101115.90
2019-04-16T01:17:40.604Z,101115.14
2019-04-16T01:20:12.653Z,101118.69
2019-04-16T01:22:46.607Z,101114.42
2019-04-16T01:25:13.195Z,101113.75
2019-04-16T01:27:46.795Z,101109.12
2019-04-16T01:30:18.178Z,101111.66
2019-04-16T01:32:54.826Z,101111.30
2019-04-16T01:35:28.801Z,101108.77
2019-04-16T01:37:59.995Z,101107.09
2019-04-16T01:40:33.902Z,101103.64
2019-04-16T01:43:03.436Z,101101.14
2019-04-16T01:45:33.382Z,101105.94
2019-04-16T01:48:06.692Z,101103.76
2019-04-16T01:50:34.316Z,101102.52
2019-04-16T01:53:03.869Z,101096.11
2019-04-16T01:55:33.402Z,101088.92
2019-04-16T01:58:03.911Z,101085.89
2019-04-16T02:00:36.448Z,101093.27
2019-04-16T02:03:05.437Z,101085.09
2019-04-16T02:05:35.031Z,101083.31
2019-04-16T02:08:04.601Z,101082.98
2019-04-16T02:10:35.505Z,101076.89
2019-04-16T02:13:06.766Z,101074.36
2019-04-16T02:15:36.321Z,101068.84
2019-04-16T02:18:06.067Z,101071.39
2019-04-16T02:20:38.471Z,101064.59
2019-04-16T02:23:06.966Z,101072.38
2019-04-16T02:25:36.590Z,101069.92
2019-04-16T02:28:06.401Z,101070.47
2019-04-16T02:30:39.095Z,101067.81
2019-04-16T02:33:07.901Z,101068.36
2019-04-16T02:35:37.593Z,101067.55
2019-04-16T02:38:12.412Z,101067.13
2019-04-16T02:40:38.582Z,101063.78
2019-04-16T02:43:08.395Z,101068.55
2019-04-16T02:45:37.965Z,101057.03
2019-04-16T02:48:07.529Z,101057.05
2019-04-16T02:50:50.762Z,101061.75
2019-04-16T02:53:39.869Z,101064.41
2019-04-16T02:56:17.399Z,101053.66
2019-04-16T02:58:52.745Z,101070.19
2019-04-16T03:01:34.350Z,101064.25
2019-04-16T03:04:08.522Z,101062.16
2019-04-16T03:06:38.080Z,101056.11
2019-04-16T03:09:08.965Z,101055.23
2019-04-16T03:11:39.143Z,101059.61
2019-04-16T03:14:08.906Z,101061.88
2019-04-16T03:16:47.380Z,101052.49
2019-04-16T03:19:21.326Z,101052.02
2019-04-16T03:21:50.864Z,101049.04
2019-04-16T03:24:20.911Z,101054.70
2019-04-16T03:26:51.252Z,101045.27
2019-04-16T03:29:21.068Z,101042.34
2019-04-16T03:31:57.416Z,101041.05
2019-04-16T03:34:22.644Z,101042.80
2019-04-16T03:36:52.965Z,101046.24
2019-04-16T03:39:22.592Z,101045.91
2019-04-16T03:41:55.906Z,101044.67
2019-04-16T03:44:23.511Z,101041.61
2019-04-16T03:46:53.120Z,101034.74
2019-04-16T03:49:24.524Z,101036.90
2019-04-16T03:51:54.453Z,101026.61
2019-04-16T03:54:24.081Z,101027.42
2019-04-16T03:56:53.631Z,101025.33
2019-04-16T03:59:23.205Z,101025.31
2019-04-16T04:01:52.783Z,101024.02
2019-04-16T04:04:22.323Z,101025.33
2019-04-16T04:06:51.935Z,101017.17
2019-04-16T04:09:22.185Z,101020.67
2019-04-16T04:11:52.488Z,101021.48
2019-04-16T04:14:23.556Z,101019.75
2019-04-16T04:16:53.186Z,101015.11
2019-04-16T04:19:22.733Z,101015.70
2019-04-16T04:21:53.693Z,101020.03
2019-04-16T04:24:23.883Z,101017.91
2019-04-16T04:26:53.482Z,101022.61
2019-04-16T04:29:24.814Z,101008.91
2019-04-16T04:31:54.676Z,101015.77
2019-04-16T04:34:24.332Z,101019.66
2019-04-16T04:36:58.865Z,101016.67
2019-04-16T04:39:25.279Z,101013.72
2019-04-16T04:41:56.474Z,101018.02
2019-04-16T04:44:26.155Z,101018.45
2019-04-16T04:46:55.731Z,101018.19
2019-04-16T04:49:30.134Z,101015.98
2019-04-16T04:51:56.651Z,101019.43
2019-04-16T04:54:26.226Z,101013.88
2019-04-16T04:56:56.323Z,101028.50
2019-04-16T04:59:27.098Z,101018.17
2019-04-16T05:01:56.706Z,101023.03
2019-04-16T05:04:33.794Z,101028.97
2019-04-16T05:07:05.163Z,101025.09
2019-04-16T05:09:36.467Z,101024.66
2019-04-16T05:12:08.279Z,101034.16
2019-04-16T05:14:39.537Z,101037.51
2019-04-16T05:17:09.389Z,101027.96
2019-04-16T05:19:40.493Z,101029.73
2019-04-16T05:22:10.045Z,101029.63
2019-04-16T05:24:39.603Z,101027.85
2019-04-16T05:27:09.454Z,101031.70
2019-04-16T05:29:39.094Z,101038.55
2019-04-16T05:32:08.689Z,101034.61
2019-04-16T05:34:38.493Z,101033.75
2019-04-16T05:37:08.201Z,101028.94
2019-04-16T05:39:37.757Z,101038.81
2019-04-16T05:42:07.306Z,101037.41
2019-04-16T05:44:37.181Z,101035.20
2019-04-16T05:47:06.821Z,101038.95
2019-04-16T05:49:36.379Z,101045.70
2019-04-16T05:52:06.152Z,101042.99
2019-04-16T05:54:35.453Z,101038.13
2019-04-16T05:57:06.791Z,101034.06
2019-04-16T05:59:48.978Z,101033.98
2019-04-16T06:02:20.205Z,101030.69
2019-04-16T06:04:50.014Z,101028.14
2019-04-16T06:07:19.563Z,101038.64
2019-04-16T06:09:49.105Z,101034.94
2019-04-16T06:12:19.632Z,101036.86
2019-04-16T06:14:59.616Z,101038.30
2019-04-16T06:17:33.503Z,101033.71
2019-04-16T06:20:05.065Z,101026.53
2019-04-16T06:22:48.102Z,101030.45
2019-04-16T06:25:31.305Z,101033.11
2019-04-16T06:28:17.482Z,101029.34
2019-04-16T06:30:51.361Z,101026.40
2019-04-16T06:33:25.440Z,101027.66
2019-04-16T06:35:57.719Z,101030.40
2019-04-16T06:38:28.981Z,101034.14
2019-04-16T06:41:04.029Z,101030.52
2019-04-16T06:43:41.203Z,101033.33
2019-04-16T06:46:18.132Z,101035.42
2019-04-16T06:48:50.382Z,101029.11
2019-04-16T06:51:43.600Z,101025.20
2019-04-16T06:54:14.843Z,101025.39
2019-04-16T06:57:02.155Z,101028.34
2019-04-16T06:59:33.338Z,101025.72
2019-04-16T07:02:24.009Z,101023.97
2019-04-16T07:04:53.748Z,101025.09
2019-04-16T07:07:39.819Z,101027.59
2019-04-16T07:10:15.137Z,101027.25
2019-04-16T07:12:45.075Z,101023.17
2019-04-16T07:15:14.900Z,101018.06
2019-04-16T07:17:44.463Z,101016.58
2019-04-16T07:20:14.674Z,101012.33
2019-04-16T07:22:44.175Z,101019.88
2019-04-16T07:25:14.105Z,101018.58
2019-04-16T07:27:45.710Z,101020.19
2019-04-16T07:30:21.042Z,101021.03
2019-04-16T07:32:53.239Z,101025.33
2019-04-16T07:35:22.573Z,101013.81
2019-04-16T07:37:53.806Z,101014.13
2019-04-16T07:40:25.205Z,101003.80
2019-04-16T07:42:58.971Z,101005.17
2019-04-16T07:45:34.455Z,101002.12
2019-04-16T07:48:06.080Z,100998.15
2019-04-16T07:50:53.238Z,100995.22
2019-04-16T07:53:31.907Z,101001.66
2019-04-16T07:56:05.965Z,100989.16
2019-04-16T07:58:35.531Z,100985.29
2019-04-16T08:01:05.425Z,100983.52
2019-04-16T08:03:35.061Z,100976.80
2019-04-16T08:06:04.666Z,100974.42
2019-04-16T08:08:34.242Z,100973.33
2019-04-16T08:11:03.799Z,100970.80
2019-04-16T08:13:34.989Z,100970.60
2019-04-16T08:16:05.058Z,100969.23
2019-04-16T08:18:36.710Z,100971.09
2019-04-16T08:21:12.064Z,100966.47
2019-04-16T08:23:42.145Z,100962.60
2019-04-16T08:26:13.652Z,100963.16
2019-04-16T08:28:43.009Z,100967.35
2019-04-16T08:31:14.253Z,100968.72
2019-04-16T08:33:44.164Z,100965.48
2019-04-16T08:36:13.727Z,100961.94
2019-04-16T08:38:43.382Z,100955.27
2019-04-16T08:41:13.396Z,100961.30
2019-04-16T08:43:43.034Z,100956.91
2019-04-16T08:46:12.658Z,100953.95
2019-04-16T08:48:42.622Z,100949.82
2019-04-16T08:51:12.194Z,100942.56
2019-04-16T08:53:43.723Z,100940.28
2019-04-16T08:56:13.137Z,100946.50
2019-04-16T08:58:42.702Z,100953.67
2019-04-16T09:01:15.453Z,100949.73
2019-04-16T09:03:45.170Z,100944.95
2019-04-16T09:06:14.755Z,100943.55
2019-04-16T09:08:44.108Z,100936.59
2019-04-16T09:11:23.052Z,100943.06
2019-04-16T09:14:02.647Z,100937.88
2019-04-16T09:16:34.242Z,100934.21
2019-04-16T09:19:05.536Z,100928.98
2019-04-16T09:21:35.282Z,100934.78
2019-04-16T09:24:22.034Z,100928.23
2019-04-16T09:27:12.393Z,100913.94
2019-04-16T09:29:54.582Z,100918.39
2019-04-16T09:32:40.773Z,100925.77
2019-04-16T09:35:26.933Z,100917.67
2019-04-16T09:38:13.458Z,100914.87
2019-04-16T09:41:00.824Z,100908.52
2019-04-16T09:43:32.094Z,100912.83
2019-04-16T09:46:10.142Z,100912.73
2019-04-16T09:48:34.806Z,100915.45
2019-04-16T09:51:04.364Z,100916.55
2019-04-16T09:53:37.538Z,100913.34
2019-04-16T09:56:26.410Z,100908.86
2019-04-16T09:58:54.794Z,100908.97
2019-04-16T10:01:26.129Z,100904.13
2019-04-16T10:03:58.441Z,100902.40
2019-04-16T10:06:28.069Z,100900.55
2019-04-16T10:08:57.663Z,100901.14
2019-04-16T10:11:27.327Z,100901.43
2019-04-16T10:13:57.019Z,100896.24
2019-04-16T10:16:28.244Z,100898.96
2019-04-16T10:18:57.957Z,100895.19
2019-04-16T10:21:28.966Z,100886.62
2019-04-16T10:24:14.068Z,100887.62
2019-04-16T10:26:45.309Z,100885.01
2019-04-16T10:29:16.601Z,100868.49
2019-04-16T10:31:46.304Z,100870.30
2019-04-16T10:34:16.008Z,100872.51
2019-04-16T10:36:45.594Z,100873.22
2019-04-16T10:39:25.532Z,100862.49
2019-04-16T10:41:56.498Z,100860.31
2019-04-16T10:44:26.124Z,100852.03
2019-04-16T10:47:16.745Z,100851.18
2019-04-16T10:50:04.943Z,100842.40
2019-04-16T10:52:56.070Z,100841.30
2019-04-16T10:55:27.534Z,100837.77
2019-04-16T10:58:04.662Z,100832.23
2019-04-16T11:00:39.866Z,100829.89
2019-04-16T11:03:13.497Z,100840.69
2019-04-16T11:05:56.754Z,100827.78
2019-04-16T11:08:25.119Z,100832.12
2019-04-16T11:10:54.686Z,100825.84
2019-04-16T11:13:25.959Z,100819.47
2019-04-16T11:15:57.195Z,100819.38
2019-04-16T11:18:26.868Z,100818.41
2019-04-16T11:20:56.706Z,100817.54
2019-04-16T11:23:26.284Z,100814.86
2019-04-16T11:25:55.895Z,100812.94
2019-04-16T11:28:25.515Z,100805.03
2019-04-16T11:30:56.725Z,100807.72
2019-04-16T11:33:27.666Z,100809.41
2019-04-16T11:35:57.451Z,100797.84
2019-04-16T11:38:26.981Z,100799.06
2019-04-16T11:40:56.545Z,100797.61
2019-04-16T11:43:26.225Z,100791.98
2019-04-16T11:45:55.819Z,100799.41
2019-04-16T11:48:25.519Z,100793.06
2019-04-16T11:50:55.118Z,100795.34
2019-04-16T11:53:24.969Z,100796.53
2019-04-16T11:55:54.650Z,100793.30
2019-04-16T11:58:31.880Z,100795.20
2019-04-16T12:01:10.345Z,100785.47
2019-04-16T12:03:48.135Z,100787.16
2019-04-16T12:06:36.626Z,100784.03
2019-04-16T12:09:11.846Z,100786.68
2019-04-16T12:11:59.287Z,100789.91
2019-04-16T12:14:34.513Z,100794.13
2019-04-16T12:17:21.968Z,100781.62
2019-04-16T12:20:09.126Z,100791.12
2019-04-16T12:22:56.342Z,100789.80
2019-04-16T12:25:26.574Z,100791.23
2019-04-16T12:28:01.945Z,100792.80
2019-04-16T12:30:39.165Z,100791.49
2019-04-16T12:33:13.699Z,100785.83
2019-04-16T12:35:52.663Z,100788.48
2019-04-16T12:38:40.134Z,100786.07
2019-04-16T12:41:27.627Z,100778.23
2019-04-16T12:44:09.600Z,100794.62
2019-04-16T12:46:40.933Z,100787.88
2019-04-16T12:49:12.285Z,100783.66
2019-04-16T12:51:43.750Z,100777.05
2019-04-16T12:54:25.470Z,100792.22
2019-04-16T12:56:57.627Z,100781.38
2019-04-16T12:59:28.838Z,100778.36
2019-04-16T13:02:04.082Z,100779.92
2019-04-16T13:04:36.313Z,100778.97
2019-04-16T13:07:06.015Z,100763.88
2019-04-16T13:09:46.064Z,100763.41
2019-04-16T13:12:23.004Z,100767.28
2019-04-16T13:15:01.021Z,100765.21
2019-04-16T13:17:32.804Z,100768.02
2019-04-16T13:20:06.809Z,100764.28
2019-04-16T13:22:41.631Z,100763.90
2019-04-16T13:25:15.831Z,100763.19
2019-04-16T13:27:47.847Z,100764.03
2019-04-16T13:30:17.912Z,100751.87
2019-04-16T13:32:47.655Z,100764.37
2019-04-16T13:35:17.431Z,100746.34
2019-04-16T13:37:47.091Z,100750.78
2019-04-16T13:40:18.570Z,100753.77
2019-04-16T13:42:48.180Z,100755.22
2019-04-16T13:45:27.022Z,100755.59
2019-04-16T13:47:56.629Z,100745.06
2019-04-16T13:50:26.082Z,100745.79
2019-04-16T13:53:00.042Z,100746.41
2019-04-16T13:55:38.059Z,100743.38
2019-04-16T13:58:22.622Z,100738.70
2019-04-16T14:00:56.873Z,100746.78
2019-04-16T14:03:26.457Z,100740.02
2019-04-16T14:05:56.082Z,100741.72
2019-04-16T14:08:25.663Z,100744.47
2019-04-16T14:10:55.321Z,100749.05
2019-04-16T14:13:24.895Z,100740.24
2019-04-16T14:15:54.445Z,100743.02
2019-04-16T14:18:24.027Z,100739.02
2019-04-16T14:20:53.614Z,100727.32
2019-04-16T14:23:23.312Z,100731.76
2019-04-16T14:25:52.889Z,100722.45
2019-04-16T14:28:22.474Z,100732.64
2019-04-16T14:30:52.045Z,100732.98
2019-04-16T14:33:40.501Z,100740.89
2019-04-16T14:36:12.003Z,100734.70
2019-04-16T14:38:48.702Z,100730.33
2019-04-16T14:41:18.256Z,100725.02
2019-04-16T14:43:49.495Z,100725.02
2019-04-16T14:46:19.418Z,100729.63
2019-04-16T14:48:48.956Z,100714.48
2019-04-16T14:51:18.550Z,100722.11
2019-04-16T14:53:51.359Z,100714.00
2019-04-16T14:56:22.762Z,100719.75
2019-04-16T14:58:56.398Z,100719.16
2019-04-16T15:01:33.669Z,100710.94
2019-04-16T15:04:04.916Z,100714.11
2019-04-16T15:06:36.177Z,100718.43
2019-04-16T15:09:25.510Z,100711.94
2019-04-16T15:12:13.266Z,100713.59
2019-04-16T15:14:48.497Z,100707.15
2019-04-16T15:17:26.239Z,100706.56
2019-04-16T15:20:08.733Z,100712.75
2019-04-16T15:22:48.758Z,100709.25
2019-04-16T15:25:28.512Z,100714.12
2019-04-16T15:28:14.833Z,100718.91
2019-04-16T15:30:44.514Z,100707.11
2019-04-16T15:33:21.312Z,100711.61
2019-04-16T15:35:52.505Z,100712.68
2019-04-16T15:38:39.706Z,100715.59
2019-04-16T15:41:13.189Z,100714.05
2019-04-16T15:44:00.694Z,100715.00
2019-04-16T15:46:47.805Z,100717.33
2019-04-16T15:49:19.434Z,100724.18
2019-04-16T15:51:51.466Z,100717.80
2019-04-16T15:54:37.740Z,100725.28
2019-04-16T15:57:14.364Z,100724.07
2019-04-16T15:59:46.504Z,100720.50
2019-04-16T16:02:33.752Z,100724.48
2019-04-16T16:05:08.226Z,100727.27
2019-04-16T16:07:39.275Z,100730.52
2019-04-16T16:10:14.154Z,100735.23
2019-04-16T16:12:44.046Z,100732.25
2019-04-16T16:15:13.896Z,100731.14
2019-04-16T16:17:43.457Z,100740.32
2019-04-16T16:20:13.632Z,100741.76
2019-04-16T16:22:43.206Z,100743.23
2019-04-16T16:25:13.098Z,100746.62
2019-04-16T16:27:46.833Z,100728.30
2019-04-16T16:30:15.076Z,100744.59
2019-04-16T16:32:45.346Z,100746.28
2019-04-16T16:35:17.827Z,100750.41
2019-04-16T16:37:46.225Z,100751.36
2019-04-16T16:40:16.941Z,100746.90
2019-04-16T16:42:46.490Z,100755.08
2019-04-16T16:45:16.126Z,100752.69
2019-04-16T16:47:45.728Z,100752.91
2019-04-16T16:50:15.529Z,100753.53
2019-04-16T16:52:55.742Z,100751.83
2019-04-16T16:55:43.022Z,100757.99
2019-04-16T16:58:24.624Z,100762.56
2019-04-16T17:01:13.915Z,100768.48
2019-04-16T17:03:52.547Z,100766.34
2019-04-16T17:06:25.026Z,100766.98
2019-04-16T17:08:54.607Z,100773.16
2019-04-16T17:11:24.172Z,100778.48
2019-04-16T17:13:53.709Z,100781.02
2019-04-16T17:16:23.362Z,100789.59
2019-04-16T17:18:52.991Z,100788.98
2019-04-16T17:21:22.530Z,100794.53
2019-04-16T17:23:52.112Z,100795.29
2019-04-16T17:26:21.646Z,100798.53
2019-04-16T17:28:51.574Z,100804.08
2019-04-16T17:31:21.137Z,100807.48
2019-04-16T17:33:50.692Z,100807.48
2019-04-16T17:36:20.246Z,100807.25
2019-04-16T17:38:49.881Z,100808.69
2019-04-16T17:41:21.096Z,100810.16
2019-04-16T17:44:00.546Z,100813.89
2019-04-16T17:46:25.621Z,100810.88
2019-04-16T17:48:57.606Z,100811.98
2019-04-16T17:51:26.944Z,100831.09
2019-04-16T17:53:58.434Z,100819.89
2019-04-16T17:56:39.843Z,100830.96
2019-04-16T17:59:16.730Z,100831.81
2019-04-16T18:02:04.516Z,100835.78
2019-04-16T18:04:52.018Z,100839.03
2019-04-16T18:07:30.353Z,100839.26
2019-04-16T18:10:02.219Z,100855.13
2019-04-16T18:12:40.131Z,100856.08
2019-04-16T18:15:23.584Z,100859.78
2019-04-16T18:18:07.004Z,100858.09
2019-04-16T18:20:56.475Z,100870.35
2019-04-16T18:23:18.350Z,100866.94
2019-04-16T18:25:56.719Z,100879.06
2019-04-16T18:28:35.938Z,100878.19
2019-04-16T18:31:24.322Z,100877.92
2019-04-16T18:34:12.133Z,100883.78
2019-04-16T18:36:43.732Z,100886.14
2019-04-16T18:39:31.428Z,100893.36
2019-04-16T18:42:04.046Z,100910.89
2019-04-16T18:44:54.989Z,100920.73
2019-04-16T18:47:27.088Z,100931.22
2019-04-16T18:50:04.239Z,100934.16
2019-04-16T18:52:36.585Z,100937.39
2019-04-16T18:55:08.563Z,100938.27
2019-04-16T18:57:39.256Z,100945.61
2019-04-16T19:00:20.850Z,100957.41
2019-04-16T19:02:53.000Z,100959.31
2019-04-16T19:05:23.386Z,100964.05
2019-04-16T19:07:55.904Z,100970.30
2019-04-16T19:10:26.729Z,100975.87
2019-04-16T19:12:57.407Z,100986.29
2019-04-16T19:15:27.579Z,100986.34
2019-04-16T19:17:58.102Z,100996.14
2019-04-16T19:20:27.862Z,101005.45
2019-04-16T19:22:58.610Z,100999.30
2019-04-16T19:25:28.389Z,100998.52
2019-04-16T19:28:04.872Z,101007.42
2019-04-16T19:30:30.565Z,101010.49
2019-04-16T19:33:01.915Z,101015.58
2019-04-16T19:35:33.748Z,101018.42
2019-04-16T19:38:06.438Z,101016.94
2019-04-16T19:40:35.821Z,101024.67
2019-04-16T19:43:06.081Z,101023.73
2019-04-16T19:45:36.372Z,101032.97
2019-04-16T19:48:06.413Z,101043.52
2019-04-16T19:50:37.295Z,101044.59
2019-04-16T19:53:07.376Z,101043.94
2019-04-16T19:55:37.643Z,101045.61
2019-04-16T19:58:08.303Z,101049.48
2019-04-16T20:00:38.085Z,101047.99
2019-04-16T20:03:07.794Z,101046.59
2019-04-16T20:05:38.573Z,101052.05
2019-04-16T20:08:08.678Z,101057.70
2019-04-16T20:10:40.036Z,101046.78
2019-04-16T20:13:09.706Z,101059.12
2019-04-16T20:15:43.205Z,101060.42
2019-04-16T20:18:11.078Z,101063.17
2019-04-16T20:20:41.523Z,101060.36
2019-04-16T20:23:11.373Z,101073.89
2019-04-16T20:25:42.669Z,101070.41
2019-04-16T20:28:15.668Z,101071.42
2019-04-16T20:30:45.059Z,101073.23
2019-04-16T20:33:14.669Z,101070.50
2019-04-16T20:35:44.244Z,101080.43
2019-04-16T20:38:16.972Z,101085.41
2019-04-16T20:40:45.165Z,101083.80
2019-04-16T20:43:14.741Z,101091.14
2019-04-16T20:45:44.331Z,101087.11
2019-04-16T20:48:14.256Z,101093.23
2019-04-16T20:50:43.772Z,101099.39
2019-04-16T20:53:13.356Z,101104.37
2019-04-16T20:55:47.109Z,101110.73
2019-04-16T20:58:14.845Z,101108.73
2019-04-16T21:00:46.475Z,101113.21
2019-04-16T21:03:22.232Z,101118.12
2019-04-16T21:05:58.028Z,101122.36
2019-04-16T21:08:24.273Z,101126.13
2019-04-16T21:10:49.913Z,101124.88
2019-04-16T21:13:19.454Z,101130.15
2019-04-16T21:15:49.005Z,101131.47
2019-04-16T21:18:18.585Z,101135.05
2019-04-16T21:20:50.877Z,101132.42
2019-04-16T21:23:19.560Z,101133.24
2019-04-16T21:25:49.185Z,101125.72
2019-04-16T21:28:36.159Z,101136.08
2019-04-16T21:31:07.366Z,101138.03
2019-04-16T21:33:49.207Z,101136.81
2019-04-16T21:36:37.860Z,101134.66
2019-04-16T21:39:11.004Z,101141.73
2019-04-16T21:41:40.596Z,101145.02
2019-04-16T21:44:12.955Z,101143.64
2019-04-16T21:46:41.652Z,101147.30
2019-04-16T21:49:11.271Z,101151.04
2019-04-16T21:51:42.584Z,101149.49
2019-04-16T21:54:12.154Z,101159.71
2019-04-16T21:56:41.722Z,101156.88
2019-04-16T21:59:11.247Z,101152.55
2019-04-16T22:01:42.529Z,101155.23
2019-04-16T22:04:14.696Z,101146.75
2019-04-16T22:06:44.469Z,101151.25
2019-04-16T22:09:14.202Z,101147.86
2019-04-16T22:11:44.460Z,101151.34
2019-04-16T22:14:14.159Z,101157.72
2019-04-16T22:16:43.709Z,101155.75
2019-04-16T22:19:14.246Z,101159.23
2019-04-16T22:21:44.431Z,101154.04
2019-04-16T22:24:13.987Z,101153.05
2019-04-16T22:26:43.860Z,101158.45
2019-04-16T22:29:15.753Z,101162.10
2019-04-16T22:31:44.686Z,101162.32
2019-04-16T22:34:14.286Z,101167.52
2019-04-16T22:36:43.886Z,101169.36
2019-04-16T22:39:24.320Z,101161.03
2019-04-16T22:42:10.620Z,101167.23
2019-04-16T22:44:42.957Z,101167.48
2019-04-16T22:47:14.479Z,101170.72
2019-04-16T22:49:44.060Z,101171.56
2019-04-16T22:52:13.614Z,101173.18
2019-04-16T22:54:43.276Z,101177.27
2019-04-16T22:57:13.907Z,101171.31
2019-04-16T22:59:43.500Z,101173.63
2019-04-16T23:02:16.745Z,101175.34
2019-04-16T23:04:46.298Z,101176.66
2019-04-16T23:07:15.866Z,101176.25
2019-04-16T23:09:45.771Z,101173.81
2019-04-16T23:12:16.841Z,101173.47
2019-04-16T23:14:46.682Z,101175.64
2019-04-16T23:17:17.314Z,101178.97
2019-04-16T23:19:46.897Z,101173.47
2019-04-16T23:22:16.437Z,101178.35
2019-04-16T23:24:46.627Z,101175.31
2019-04-16T23:27:16.292Z,101174.38
2019-04-16T23:29:47.630Z,101177.38
2019-04-16T23:32:17.411Z,101179.61
2019-04-16T23:34:47.008Z,101177.44
2019-04-16T23:37:16.655Z,101174.81
2019-04-16T23:39:46.451Z,101170.97
2019-04-16T23:42:18.815Z,101180.06
2019-04-16T23:44:58.882Z,101176.67
2019-04-16T23:47:28.685Z,101174.65
2019-04-16T23:50:08.713Z,101170.48
2019-04-16T23:52:42.523Z,101165.22
2019-04-16T23:55:17.564Z,101175.09
2019-04-16T23:58:04.778Z,101173.88
